Time;durP1;ratioP1;P1;durP2;ratioP2;P2;SDS_P1;SDS_P2;PMS_P1;PMS_P2;Temp;Humidity;BMP_temperature;BMP_pressure;BME280_temperature;BME280_humidity;BME280_pressure;Samples;Min_cycle;Max_cycle;Signal;HPM_P1;HPM_P2
2021/12/13 00:00:57;;;;;;;10.05;4.03;;;;;;;-146.64;100.00;39980.47;5067817;28;20063;-77
2021/12/13 00:03:28;;;;;;;15.13;4.68;;;;;;;-146.64;100.00;39996.84;5062928;28;20531;-77
2021/12/13 00:05:59;;;;;;;18.65;4.47;;;;;;;-146.64;100.00;39890.41;5042071;28;20396;-77
2021/12/13 00:08:33;;;;;;;12.23;3.72;;;;;;;-146.64;100.00;39990.72;5058625;28;20127;-77
2021/12/13 00:11:23;;;;;;;15.57;4.03;;;;;;;-146.64;100.00;39982.53;5064441;28;20043;-77
2021/12/13 00:13:53;;;;;;;14.18;3.58;;;;;;;-146.64;100.00;40007.09;5033144;28;20080;-76
2021/12/13 00:16:35;;;;;;;5.18;3.03;;;;;;;-146.64;100.00;39992.75;5063252;28;20560;-77
2021/12/13 00:19:05;;;;;;;11.63;4.05;;;;;;;-146.64;100.00;40021.41;5064329;28;20562;-78
2021/12/13 00:21:37;;;;;;;10.75;3.40;;;;;;;-146.64;100.00;40000.94;5060214;28;20487;-77
2021/12/13 00:24:07;;;;;;;12.63;4.05;;;;;;;-146.64;100.00;40009.13;5060965;28;20527;-77
2021/12/13 00:26:36;;;;;;;10.80;4.18;;;;;;;-146.64;100.00;40005.03;5041158;28;20036;-77
2021/12/13 00:29:13;;;;;;;8.82;3.55;;;;;;;-146.64;100.00;39992.75;5060201;28;20044;-77
2021/12/13 00:32:18;;;;;;;8.27;3.10;;;;;;;-146.64;100.00;39976.38;5073996;28;20025;-77
2021/12/13 00:34:50;;;;;;;9.00;3.78;;;;;;;-146.64;100.00;39984.56;5058081;28;20059;-77
2021/12/13 00:37:20;;;;;;;9.25;3.88;;;;;;;-146.64;100.00;39947.72;5060728;28;20040;-77
2021/12/13 00:39:54;;;;;;;13.63;4.75;;;;;;;-146.64;100.00;39937.50;5040451;28;20033;-77
2021/12/13 00:42:21;;;;;;;9.02;4.75;;;;;;;-146.64;100.00;39865.84;5064480;28;20120;-77
2021/12/13 00:44:50;;;;;;;13.48;5.93;;;;;;;-146.64;100.00;39931.34;5047550;28;20368;-77
2021/12/13 00:47:35;;;;;;;16.13;5.88;;;;;;;-146.64;100.00;39988.66;5066748;28;20392;-77
2021/12/13 00:50:09;;;;;;;17.73;7.63;;;;;;;-146.64;100.00;39970.25;5043254;28;20107;-77
2021/12/13 00:52:36;;;;;;;17.80;7.25;;;;;;;-146.64;100.00;39955.91;5053197;28;20510;-77
2021/12/13 00:55:09;;;;;;;16.92;8.52;;;;;;;-146.64;100.00;39972.28;5067085;28;20024;-77
2021/12/13 00:57:43;;;;;;;19.95;8.70;;;;;;;-146.64;100.00;39935.44;5064724;28;20442;-77
2021/12/13 01:00:09;;;;;;;16.63;8.80;;;;;;;-146.64;100.00;39943.63;5069753;28;20512;-77
2021/12/13 01:03:02;;;;;;;17.57;11.67;;;;;;;-146.64;100.00;39949.78;5066750;28;20025;-77
2021/12/13 01:05:50;;;;;;;21.02;10.65;;;;;;;-146.64;100.00;39941.59;5062585;28;20419;-77
2021/12/13 01:08:52;;;;;;;23.50;12.00;;;;;;;-146.64;100.00;39957.97;5058308;28;20028;-77
2021/12/13 01:11:37;;;;;;;22.42;11.57;;;;;;;-146.64;100.00;39910.88;5057666;28;20024;-77
2021/12/13 01:14:14;;;;;;;25.02;12.27;;;;;;;-146.64;100.00;39923.16;5065698;28;20130;-77
2021/12/13 01:16:53;;;;;;;21.30;11.82;;;;;;;-146.64;100.00;39882.22;5070802;28;20109;-77
2021/12/13 01:19:35;;;;;;;21.70;11.80;;;;;;;-146.64;100.00;39927.25;5065256;28;20032;-77
2021/12/13 01:22:36;;;;;;;19.98;11.07;;;;;;;-146.64;100.00;39888.38;5060156;28;20134;-77
2021/12/13 01:28:32;;;;;;;15.50;11.23;;;;;;;-146.64;100.00;39874.03;5056038;28;20128;-77
2021/12/13 01:31:00;;;;;;;23.17;11.00;;;;;;;-146.64;100.00;39876.09;5069315;28;20108;-78
2021/12/13 01:33:27;;;;;;;21.50;11.90;;;;;;;-146.64;100.00;39896.56;5059142;28;20028;-77
2021/12/13 01:35:53;;;;;;;;;;;;;;;-146.64;100.00;39886.31;5061107;28;20094;-77
2021/12/13 01:38:35;;;;;;;21.73;10.38;;;;;;;-146.64;100.00;39874.03;5051685;28;20003;-77
2021/12/13 01:41:08;;;;;;;18.83;11.48;;;;;;;-146.64;100.00;39853.56;5046120;28;20032;-77
2021/12/13 01:43:35;;;;;;;21.48;10.32;;;;;;;-146.64;100.00;39867.91;5066909;28;20031;-77
2021/12/13 01:46:00;;;;;;;18.80;10.68;;;;;;;-146.64;100.00;39853.56;5046027;28;20123;-77
2021/12/13 01:48:30;;;;;;;18.33;10.50;;;;;;;-146.64;100.00;39822.88;5055607;28;20548;-77
2021/12/13 01:51:05;;;;;;;18.25;10.35;;;;;;;-146.64;100.00;39865.84;5041156;28;20040;-77
2021/12/13 01:53:43;;;;;;;12.82;9.85;;;;;;;-146.64;100.00;39882.22;5060084;28;20112;-77
2021/12/13 01:57:11;;;;;;;18.98;10.75;;;;;;;-146.64;100.00;39874.03;5068354;28;20059;-77
2021/12/13 02:02:24;;;;;;;14.13;8.77;;;;;;;-146.64;100.00;39841.28;5060126;28;20085;-77
2021/12/13 02:05:27;;;;;;;14.45;9.23;;;;;;;-146.64;100.00;39851.53;5049973;28;20036;-77
2021/12/13 02:07:59;;;;;;;21.77;9.45;;;;;;;-146.64;100.00;39833.09;5011522;28;20048;-77
2021/12/13 02:10:41;;;;;;;13.32;9.27;;;;;;;-146.64;100.00;39847.44;5049366;28;20626;-77
2021/12/13 02:13:16;;;;;;;13.43;8.68;;;;;;;-146.64;100.00;39845.38;5045081;28;20202;-77
2021/12/13 02:18:31;;;;;;;13.05;8.25;;;;;;;-146.64;100.00;39857.66;5065753;28;20085;-77
2021/12/13 02:21:05;;;;;;;12.07;7.63;;;;;;;-146.64;100.00;39829.00;5063448;28;20033;-77
2021/12/13 02:23:33;;;;;;;13.40;7.55;;;;;;;-146.64;100.00;39798.31;5054772;28;20029;-77
2021/12/13 02:25:59;;;;;;;11.63;7.38;;;;;;;-146.64;100.00;39804.44;5057473;28;20025;-77
2021/12/13 02:28:30;;;;;;;10.33;7.27;;;;;;;-146.64;100.00;39853.56;5050781;28;20089;-77
2021/12/13 02:30:58;;;;;;;12.15;6.53;;;;;;;-146.64;100.00;39808.53;5065154;28;20028;-77
2021/12/13 02:33:33;;;;;;;15.32;7.00;;;;;;;-146.64;100.00;39812.63;5057748;28;20086;-77
2021/12/13 02:36:04;;;;;;;9.57;6.32;;;;;;;-146.64;100.00;39814.69;5064335;28;20021;-78
2021/12/13 02:38:31;;;;;;;11.85;6.88;;;;;;;-146.64;100.00;39837.19;5041505;28;20163;-77
2021/12/13 02:40:57;;;;;;;14.40;6.80;;;;;;;-146.64;100.00;39804.44;5059373;28;20033;-78
2021/12/13 02:43:28;;;;;;;16.30;7.13;;;;;;;-146.64;100.00;39800.34;5053316;28;20037;-77
2021/12/13 02:45:56;;;;;;;11.05;6.82;;;;;;;-146.64;100.00;39829.00;5067963;28;20415;-77
2021/12/13 02:48:41;;;;;;;18.48;8.82;;;;;;;-146.64;100.00;39820.81;5039125;28;20048;-77
2021/12/13 02:51:22;;;;;;;13.05;8.10;;;;;;;-146.64;100.00;39829.00;5063286;28;20036;-76
2021/12/13 02:54:00;;;;;;;18.30;9.43;;;;;;;-146.64;100.00;39841.28;5057605;28;20488;-77
2021/12/13 02:56:33;;;;;;;16.35;9.90;;;;;;;-146.64;100.00;39818.78;5049508;28;20080;-76
2021/12/13 02:58:59;;;;;;;15.20;11.20;;;;;;;-146.64;100.00;39839.25;5057740;28;20029;-77
2021/12/13 03:01:29;;;;;;;19.00;10.97;;;;;;;-146.64;100.00;39820.81;5058280;28;20058;-77
2021/12/13 03:04:06;;;;;;;15.02;11.00;;;;;;;-146.64;100.00;39880.19;5057260;28;20036;-77
2021/12/13 03:06:37;;;;;;;15.32;10.40;;;;;;;-146.64;100.00;39861.75;5066741;28;20495;-77
2021/12/13 03:09:15;;;;;;;14.15;9.85;;;;;;;-146.64;100.00;39886.31;5067845;28;20453;-77
2021/12/13 03:11:40;;;;;;;18.48;10.55;;;;;;;-146.64;100.00;39867.91;5050214;28;20032;-76
2021/12/13 03:14:22;;;;;;;19.40;10.93;;;;;;;-146.64;100.00;39867.91;5053865;28;20028;-76
2021/12/13 03:16:58;;;;;;;16.60;10.18;;;;;;;-146.64;100.00;39849.47;5057749;28;20406;-77
2021/12/13 03:19:42;;;;;;;19.25;11.32;;;;;;;-146.64;100.00;39886.31;5054274;28;20468;-77
2021/12/13 03:22:26;;;;;;;19.73;11.00;;;;;;;-146.64;100.00;39882.22;5055388;28;20029;-77
2021/12/13 03:25:28;;;;;;;22.00;10.68;;;;;;;-146.64;100.00;39886.31;5061566;28;20055;-76
2021/12/13 03:28:23;;;;;;;18.15;10.95;;;;;;;-146.64;100.00;39886.31;5053447;28;20036;-77
2021/12/13 03:31:02;;;;;;;14.05;10.13;;;;;;;-146.64;100.00;39880.19;5048896;28;20028;-76
2021/12/13 03:33:43;;;;;;;16.30;10.95;;;;;;;-146.64;100.00;39863.81;5062404;28;20111;-77
2021/12/13 03:36:15;;;;;;;17.45;11.63;;;;;;;-146.64;100.00;39796.25;5055195;28;20028;-77
2021/12/13 03:38:48;;;;;;;18.20;12.05;;;;;;;-146.64;100.00;39829.00;5035497;28;20332;-78
2021/12/13 03:41:19;;;;;;;19.33;11.13;;;;;;;-146.64;100.00;39837.19;5042360;28;20043;-76
2021/12/13 03:43:55;;;;;;;22.90;11.80;;;;;;;-146.64;100.00;39865.84;5044085;28;20044;-76
2021/12/13 03:46:23;;;;;;;19.65;11.50;;;;;;;-146.64;100.00;39849.47;5067350;28;20388;-77
2021/12/13 03:48:50;;;;;;;23.95;12.32;;;;;;;-146.64;100.00;39876.09;5058827;28;20025;-76
2021/12/13 03:51:20;;;;;;;18.55;11.90;;;;;;;-146.64;100.00;39816.72;5064860;28;20429;-76
2021/12/13 03:53:47;;;;;;;18.70;10.75;;;;;;;-146.64;100.00;39853.56;5053488;28;20017;-76
2021/12/13 03:56:17;;;;;;;18.08;11.32;;;;;;;-146.64;100.00;39804.44;5048884;28;20044;-76
2021/12/13 03:58:51;;;;;;;21.33;10.60;;;;;;;-146.64;100.00;39847.44;5050860;28;20108;-76
2021/12/13 04:01:21;;;;;;;19.98;10.95;;;;;;;-146.64;100.00;39820.81;5037690;28;20133;-76
2021/12/13 04:03:47;;;;;;;15.77;10.93;;;;;;;-146.64;100.00;39804.44;5055818;28;20020;-77
2021/12/13 04:06:15;;;;;;;16.88;10.93;;;;;;;-146.64;100.00;39814.69;5051611;28;20486;-77
2021/12/13 04:08:43;;;;;;;29.30;11.70;;;;;;;-146.64;100.00;39829.00;5040727;28;20041;-76
2021/12/13 04:11:10;;;;;;;17.50;11.15;;;;;;;-146.64;100.00;39829.00;5049887;28;20060;-76
2021/12/13 04:13:46;;;;;;;15.02;10.68;;;;;;;-146.64;100.00;39833.09;5050649;28;20505;-76
2021/12/13 04:16:29;;;;;;;16.63;11.18;;;;;;;-146.64;100.00;39826.97;5050680;28;20060;-77
2021/12/13 04:19:06;;;;;;;17.85;10.80;;;;;;;-146.64;100.00;39829.00;5067793;28;20107;-76
2021/12/13 04:21:55;;;;;;;16.85;10.48;;;;;;;-146.64;100.00;39814.69;5058138;28;20071;-77
2021/12/13 04:24:29;;;;;;;18.27;10.45;;;;;;;-146.64;100.00;39810.59;5055887;28;20036;-76
2021/12/13 04:27:00;;;;;;;19.08;10.40;;;;;;;-146.64;100.00;39824.91;5064496;28;20056;-76
2021/12/13 04:29:29;;;;;;;19.08;10.90;;;;;;;-146.64;100.00;39800.34;5057951;28;20071;-76
2021/12/13 04:31:57;;;;;;;15.05;10.23;;;;;;;-146.64;100.00;39779.88;5037045;28;20077;-76
2021/12/13 04:34:24;;;;;;;20.27;11.52;;;;;;;-146.64;100.00;39769.66;5055743;28;20043;-76
2021/12/13 04:36:53;;;;;;;18.25;11.25;;;;;;;-146.64;100.00;39747.13;5062580;28;20158;-78
2021/12/13 04:39:27;;;;;;;13.30;9.73;;;;;;;-146.64;100.00;39788.06;5050034;28;20036;-76
2021/12/13 04:42:02;;;;;;;16.60;9.13;;;;;;;-146.64;100.00;39775.78;5052454;28;20388;-76
2021/12/13 04:44:50;;;;;;;17.25;8.77;;;;;;;-146.64;100.00;39759.41;5049291;28;20033;-76
2021/12/13 04:47:23;;;;;;;21.77;9.68;;;;;;;-146.64;100.00;39763.50;5053545;28;20063;-77
2021/12/13 04:50:23;;;;;;;16.02;9.10;;;;;;;-146.64;100.00;39726.66;5053826;28;20092;-77
2021/12/13 04:52:51;;;;;;;14.23;9.52;;;;;;;-146.64;100.00;39724.63;5049098;28;20047;-77
2021/12/13 04:55:24;;;;;;;12.55;7.75;;;;;;;-146.64;100.00;39702.09;5064141;28;20135;-76
2021/12/13 04:57:50;;;;;;;12.80;8.00;;;;;;;-146.64;100.00;39708.25;5042815;28;20045;-76
2021/12/13 05:00:19;;;;;;;21.88;9.05;;;;;;;-146.64;100.00;39677.53;5054709;28;20035;-77
2021/12/13 05:02:47;;;;;;;12.70;9.35;;;;;;;-146.64;100.00;39677.53;5063723;28;20044;-76
2021/12/13 05:05:13;;;;;;;14.57;8.15;;;;;;;-146.64;100.00;39677.53;5060947;28;20137;-76
2021/12/13 05:07:41;;;;;;;20.47;8.73;;;;;;;-146.64;100.00;39706.19;5060111;28;20035;-77
2021/12/13 05:10:07;;;;;;;13.43;8.63;;;;;;;-146.64;100.00;39685.72;5035745;28;20076;-77
2021/12/13 05:12:32;;;;;;;13.93;8.50;;;;;;;-146.64;100.00;39710.28;5040841;28;20133;-76
2021/12/13 05:15:01;;;;;;;17.47;9.27;;;;;;;-146.64;100.00;39708.25;5059554;28;20443;-76
2021/12/13 05:17:47;;;;;;;15.73;9.15;;;;;;;-146.64;100.00;39718.47;5054062;28;20025;-77
2021/12/13 05:20:23;;;;;;;22.00;9.82;;;;;;;-146.64;100.00;39730.75;5064373;28;20071;-76
2021/12/13 05:22:51;;;;;;;15.23;10.73;;;;;;;-146.64;100.00;39681.63;5071743;28;20487;-75
2021/12/13 05:25:31;;;;;;;18.08;11.32;;;;;;;-146.64;100.00;39728.72;5056439;28;20020;-75
2021/12/13 05:28:18;;;;;;;18.23;11.85;;;;;;;-146.64;100.00;39675.50;5059375;28;20040;-76
2021/12/13 05:31:03;;;;;;;19.63;10.50;;;;;;;-146.64;100.00;39714.38;5067931;28;20375;-76
2021/12/13 05:33:31;;;;;;;16.40;11.15;;;;;;;-146.64;100.00;39698.00;5065271;28;20024;-76
2021/12/13 05:36:05;;;;;;;20.63;11.75;;;;;;;-146.64;100.00;39689.81;5051735;28;20033;-76
2021/12/13 05:38:39;;;;;;;24.75;12.50;;;;;;;-146.64;100.00;39722.56;5043328;28;20171;-76
2021/12/13 05:41:07;;;;;;;18.08;11.27;;;;;;;-146.64;100.00;39726.66;5049004;28;20020;-77
2021/12/13 05:43:41;;;;;;;23.75;12.52;;;;;;;-146.64;100.00;39745.09;5052091;28;20028;-78
2021/12/13 05:46:19;;;;;;;26.60;12.15;;;;;;;-146.64;100.00;39724.63;5055643;28;20032;-77
2021/12/13 05:48:51;;;;;;;16.13;11.98;;;;;;;-146.64;100.00;39734.84;5054410;28;20422;-76
2021/12/13 05:51:47;;;;;;;22.67;12.00;;;;;;;-146.64;100.00;39712.34;5054605;28;20029;-76
2021/12/13 05:54:22;;;;;;;22.73;12.57;;;;;;;-146.64;100.00;39714.38;5031228;28;20127;-76
2021/12/13 05:56:57;;;;;;;22.88;13.15;;;;;;;-146.64;100.00;39734.84;5052949;28;20079;-77
2021/12/13 05:59:27;;;;;;;25.77;15.52;;;;;;;-146.64;100.00;39718.47;5068307;28;20036;-77
2021/12/13 06:01:53;;;;;;;23.25;14.43;;;;;;;-146.64;100.00;39714.38;5067555;28;20055;-76
2021/12/13 06:04:33;;;;;;;32.17;14.73;;;;;;;-146.64;100.00;39710.28;5051693;28;20029;-76
2021/12/13 06:06:58;;;;;;;24.17;14.93;;;;;;;-146.64;100.00;39722.56;5058419;28;20117;-76
2021/12/13 06:09:43;;;;;;;29.63;15.97;;;;;;;-146.64;100.00;39710.28;5059805;28;20032;-76
2021/12/13 06:12:14;;;;;;;24.30;15.52;;;;;;;-146.64;100.00;39698.00;5063995;28;20031;-77
2021/12/13 06:14:40;;;;;;;32.15;16.27;;;;;;;-146.64;100.00;39738.94;5070272;28;20525;-77
2021/12/13 06:17:20;;;;;;;31.50;16.88;;;;;;;-146.64;100.00;39755.31;5065479;28;20025;-78
2021/12/13 06:20:08;;;;;;;29.17;17.17;;;;;;;-146.64;100.00;39718.47;5049747;28;20017;-76
2021/12/13 06:22:35;;;;;;;28.35;16.52;;;;;;;-146.64;100.00;39747.13;5054720;28;20032;-76
2021/12/13 06:25:07;;;;;;;25.02;17.42;;;;;;;-146.64;100.00;39781.94;5041747;28;20484;-76
2021/12/13 06:27:42;;;;;;;31.00;19.38;;;;;;;-146.64;100.00;39749.19;5069048;28;20046;-77
2021/12/13 06:30:10;;;;;;;27.35;17.77;;;;;;;-146.64;100.00;39726.66;5045200;28;20035;-77
2021/12/13 06:32:41;;;;;;;37.05;19.67;;;;;;;-146.64;100.00;39747.13;5062134;28;20029;-77
2021/12/13 06:35:44;;;;;;;32.72;20.38;;;;;;;-146.64;100.00;39779.88;5050651;28;20160;-76
2021/12/13 06:38:32;;;;;;;33.45;19.48;;;;;;;-146.64;100.00;39798.31;5063679;28;20029;-77
2021/12/13 06:40:58;;;;;;;34.22;21.48;;;;;;;-146.64;100.00;39804.44;5063099;28;20031;-76
2021/12/13 06:43:38;;;;;;;35.53;22.17;;;;;;;-146.64;100.00;39808.53;5051972;28;20033;-76
2021/12/13 06:46:09;;;;;;;34.50;21.63;;;;;;;-146.64;100.00;39792.16;5063404;28;20388;-77
2021/12/13 06:48:42;;;;;;;37.92;22.17;;;;;;;-146.64;100.00;39800.34;5044523;28;20028;-76
2021/12/13 06:51:09;;;;;;;38.70;22.80;;;;;;;-146.64;100.00;39775.78;5061258;28;20049;-76
2021/12/13 06:53:35;;;;;;;36.47;22.38;;;;;;;-146.64;100.00;39767.59;5047897;28;20081;-76
2021/12/13 06:56:19;;;;;;;36.80;22.23;;;;;;;-146.64;100.00;39779.88;5038381;28;20492;-76
2021/12/13 06:58:50;;;;;;;44.75;23.48;;;;;;;-146.64;100.00;39792.16;5064551;28;20507;-78
2021/12/13 07:01:16;;;;;;;43.13;22.80;;;;;;;-146.64;100.00;39763.50;5058302;28;20021;-76
2021/12/13 07:03:52;;;;;;;37.35;22.00;;;;;;;-146.64;100.00;39806.50;5060514;28;20521;-78
2021/12/13 07:06:18;;;;;;;36.25;23.05;;;;;;;-146.64;100.00;39804.44;5067823;28;20082;-77
2021/12/13 07:08:44;;;;;;;40.13;23.00;;;;;;;-146.64;100.00;39814.69;5056325;28;20063;-77
2021/12/13 07:11:12;;;;;;;37.43;23.03;;;;;;;-146.64;100.00;39802.41;5053040;28;20059;-77
2021/12/13 07:13:51;;;;;;;43.72;23.05;;;;;;;-146.64;100.00;39820.81;5036133;28;20480;-78
2021/12/13 07:16:24;;;;;;;36.42;21.35;;;;;;;-146.64;100.00;39826.97;5063299;28;20377;-77
2021/12/13 07:19:02;;;;;;;38.63;22.95;;;;;;;-146.64;100.00;39824.91;5037021;28;20056;-77
2021/12/13 07:21:34;;;;;;;34.15;22.50;;;;;;;-146.64;100.00;39804.44;5055742;28;20396;-77
2021/12/13 07:24:42;;;;;;;42.65;22.33;;;;;;;-146.64;100.00;39841.28;5055534;28;20020;-77
2021/12/13 07:27:13;;;;;;;37.78;21.85;;;;;;;-146.64;100.00;39820.81;5054695;28;20025;-76
2021/12/13 07:29:55;;;;;;;35.80;22.10;;;;;;;-146.64;100.00;39829.00;5060403;28;20024;-77
2021/12/13 07:32:38;;;;;;;37.28;22.15;;;;;;;-146.64;100.00;39820.81;5057768;28;20016;-76
2021/12/13 07:35:13;;;;;;;35.08;21.67;;;;;;;-146.64;100.00;39841.28;5058406;28;20078;-77
2021/12/13 07:37:52;;;;;;;36.72;21.20;;;;;;;-146.64;100.00;39826.97;5056119;28;20028;-76
2021/12/13 07:40:19;;;;;;;36.22;21.75;;;;;;;-146.64;100.00;39831.06;5060784;28;20024;-76
2021/12/13 07:42:52;;;;;;;40.15;23.75;;;;;;;-146.64;100.00;39835.16;5056880;28;20033;-77
2021/12/13 07:45:43;;;;;;;39.65;22.42;;;;;;;-146.64;100.00;39837.19;5060900;28;20037;-76
2021/12/13 07:48:15;;;;;;;36.60;21.67;;;;;;;-146.64;100.00;39794.22;5058164;28;20510;-77
2021/12/13 07:50:44;;;;;;;35.13;20.52;;;;;;;-146.64;100.00;39824.91;5041432;28;20060;-76
2021/12/13 07:53:18;;;;;;;38.80;21.33;;;;;;;-146.64;100.00;39845.38;5059304;28;20020;-76
2021/12/13 07:55:46;;;;;;;34.92;22.10;;;;;;;-146.64;100.00;39837.19;5039501;28;20071;-76
2021/12/13 07:58:16;;;;;;;36.85;21.80;;;;;;;-146.64;100.00;39837.19;5049237;28;20049;-76
2021/12/13 08:00:41;;;;;;;38.08;22.40;;;;;;;-146.64;100.00;39829.00;5050613;28;20029;-76
2021/12/13 08:03:10;;;;;;;44.25;21.83;;;;;;;-146.64;100.00;39814.69;5043661;28;20029;-76
2021/12/13 08:05:40;;;;;;;34.80;21.15;;;;;;;-146.64;100.00;39826.97;5049022;28;20020;-76
2021/12/13 08:08:17;;;;;;;38.38;22.17;;;;;;;-146.64;100.00;39829.00;5044244;28;20024;-76
2021/12/13 08:10:44;;;;;;;36.55;19.65;;;;;;;-146.64;100.00;39726.66;5053452;28;20064;-76
2021/12/13 08:13:09;;;;;;;;;;;;;;;-146.64;100.00;39816.72;5050969;28;20025;-76
2021/12/13 08:15:59;;;;;;;38.17;19.85;;;;;;;-146.64;100.00;39804.44;5058053;28;20272;-76
2021/12/13 08:18:30;;;;;;;34.90;20.00;;;;;;;-146.64;100.00;39783.97;5050382;28;20021;-76
2021/12/13 08:21:13;;;;;;;34.70;21.00;;;;;;;-146.64;100.00;39777.84;5050043;28;20029;-76
2021/12/13 08:23:47;;;;;;;40.03;20.23;;;;;;;-146.64;100.00;39800.34;5048970;28;20028;-76
2021/12/13 08:26:25;;;;;;;38.63;21.92;;;;;;;-146.64;100.00;39767.59;5077811;28;20503;-76
2021/12/13 08:28:54;;;;;;;40.00;20.23;;;;;;;-146.64;100.00;39826.97;5032517;28;21815;-76
2021/12/13 08:31:22;;;;;;;32.03;19.35;;;;;;;-146.64;100.00;39808.53;5051992;28;20516;-76
2021/12/13 08:33:55;;;;;;;37.30;19.67;;;;;;;-146.64;100.00;39783.97;5048675;28;20551;-76
2021/12/13 08:36:29;;;;;;;32.45;20.13;;;;;;;-146.64;100.00;39804.44;5048244;28;20416;-76
2021/12/13 08:39:11;;;;;;;32.80;19.05;;;;;;;-146.64;100.00;39824.91;5061133;28;20044;-75
2021/12/13 08:41:44;;;;;;;35.70;21.48;;;;;;;-146.64;100.00;39814.69;5055874;28;20025;-75
2021/12/13 08:44:09;;;;;;;33.33;19.58;;;;;;;-146.64;100.00;39800.34;5059406;28;20031;-75
2021/12/13 08:46:51;;;;;;;33.88;18.88;;;;;;;-146.64;100.00;39777.84;5069362;28;20476;-75
2021/12/13 08:49:29;;;;;;;31.17;17.90;;;;;;;-146.64;100.00;39816.72;5055220;28;20047;-75
2021/12/13 08:51:57;;;;;;;34.42;18.75;;;;;;;-146.64;100.00;39816.72;5058377;28;20480;-75
2021/12/13 08:54:53;;;;;;;28.02;17.75;;;;;;;-146.64;100.00;39783.97;5037957;28;20028;-75
2021/12/13 08:57:46;;;;;;;30.60;18.83;;;;;;;-146.64;100.00;39792.16;5051098;28;20068;-75
2021/12/13 09:00:11;;;;;;;33.03;18.95;;;;;;;-146.64;100.00;39781.94;5052324;28;20028;-75
2021/12/13 09:02:41;;;;;;;30.90;16.88;;;;;;;-146.64;100.00;39800.34;5062183;28;20044;-75
2021/12/13 09:05:26;;;;;;;33.50;18.73;;;;;;;-146.64;100.00;39792.16;5052946;28;20825;-75
2021/12/13 09:08:13;;;;;;;32.67;18.42;;;;;;;-146.64;100.00;39751.22;5056163;28;20061;-75
2021/12/13 09:10:46;;;;;;;34.70;19.52;;;;;;;-146.64;100.00;39755.31;5051444;28;20361;-75
2021/12/13 09:13:13;;;;;;;33.13;19.35;;;;;;;-146.64;100.00;39761.47;5064975;28;20098;-75
2021/12/13 09:15:39;;;;;;;31.17;18.00;;;;;;;-146.64;100.00;39718.47;5064611;28;20078;-75
2021/12/13 09:18:07;;;;;;;38.50;18.20;;;;;;;-146.64;100.00;39761.47;5052486;28;20119;-75
2021/12/13 09:20:34;;;;;;;33.55;17.77;;;;;;;-146.64;100.00;39743.03;5048230;28;20118;-75
2021/12/13 09:23:34;;;;;;;;;;;;;;;-146.64;100.00;39759.41;5051864;28;20053;-75
2021/12/13 09:26:33;;;;;;;36.50;18.25;;;;;;;-146.64;100.00;39726.66;5030048;28;20372;-75
2021/12/13 09:29:04;;;;;;;26.05;16.38;;;;;;;-146.64;100.00;39722.56;5030099;28;20032;-75
2021/12/13 09:31:34;;;;;;;30.40;17.02;;;;;;;-146.64;100.00;39710.28;5061040;28;20039;-75
2021/12/13 09:34:08;;;;;;;29.38;16.42;;;;;;;-146.64;100.00;39724.63;5041574;28;20120;-75
2021/12/13 09:36:36;;;;;;;31.85;15.68;;;;;;;-146.64;100.00;39693.91;5034300;28;20025;-75
2021/12/13 09:39:21;;;;;;;26.33;15.88;;;;;;;-146.64;100.00;39722.56;5037352;28;20032;-75
2021/12/13 09:41:53;;;;;;;27.38;16.65;;;;;;;-146.64;100.00;39681.63;5052876;28;20032;-76
2021/12/13 09:44:21;;;;;;;28.88;16.58;;;;;;;-146.64;100.00;39669.34;5058308;28;20035;-75
2021/12/13 09:46:59;;;;;;;30.63;16.58;;;;;;;-146.64;100.00;39704.16;5052375;28;20078;-77
2021/12/13 09:49:29;;;;;;;;;;;;;;;-146.64;100.00;39693.91;5052497;28;20021;-76
2021/12/13 09:52:17;;;;;;;26.73;16.13;;;;;;;-146.64;100.00;39693.91;5039437;28;19923;-76
2021/12/13 09:54:48;;;;;;;26.85;15.75;;;;;;;-146.64;100.00;39657.06;5052416;28;20090;-76
2021/12/13 09:57:21;;;;;;;33.05;15.82;;;;;;;-146.64;100.00;39661.16;5058115;28;20041;-76
2021/12/13 09:59:50;;;;;;;29.50;15.35;;;;;;;-146.64;100.00;39671.41;5063815;28;20123;-76
2021/12/13 10:02:20;;;;;;;28.20;15.02;;;;;;;-146.64;100.00;39644.78;5036629;28;20024;-76
2021/12/13 10:04:49;;;;;;;26.88;15.57;;;;;;;-146.64;100.00;39657.06;5050732;28;20029;-76
2021/12/13 10:07:28;;;;;;;24.48;15.38;;;;;;;-146.64;100.00;39665.25;5037730;28;20413;-76
2021/12/13 10:09:58;;;;;;;25.83;14.55;;;;;;;-146.64;100.00;39648.88;5043334;28;20036;-76
2021/12/13 10:12:35;;;;;;;26.70;15.52;;;;;;;-146.64;100.00;39640.69;5050936;28;20378;-76
2021/12/13 10:15:07;;;;;;;;;;;;;;;-146.64;100.00;39657.06;5057237;28;20029;-76
2021/12/13 10:17:36;;;;;;;29.50;15.20;;;;;;;-146.64;100.00;39642.75;5041254;28;19942;-76
2021/12/13 10:20:12;;;;;;;29.70;14.52;;;;;;;-146.64;100.00;39554.72;5056861;28;20388;-76
2021/12/13 10:22:37;;;;;;;28.05;15.13;;;;;;;-146.64;100.00;39652.97;5040663;28;20086;-76
2021/12/13 10:25:28;;;;;;;25.93;14.23;;;;;;;-146.64;100.00;39665.25;5056527;28;20029;-76
2021/12/13 10:27:54;;;;;;;27.13;15.15;;;;;;;-146.64;100.00;39644.78;5047991;28;20037;-76
2021/12/13 10:30:29;;;;;;;27.40;14.80;;;;;;;-146.64;100.00;39681.63;5055415;28;20072;-76
2021/12/13 10:32:54;;;;;;;31.23;14.63;;;;;;;-146.64;100.00;39628.41;5051990;28;20029;-76
2021/12/13 10:35:24;;;;;;;25.63;14.18;;;;;;;-146.64;100.00;39652.97;5049946;28;20499;-76
2021/12/13 10:37:53;;;;;;;30.45;14.60;;;;;;;-146.64;100.00;39644.78;5053898;28;20179;-76
2021/12/13 10:40:36;;;;;;;26.17;14.63;;;;;;;-146.64;100.00;39652.97;5045629;28;20115;-76
2021/12/13 10:43:26;;;;;;;30.70;15.02;;;;;;;-146.64;100.00;39685.72;5033325;28;20021;-76
2021/12/13 10:45:55;;;;;;;26.52;14.52;;;;;;;-146.64;100.00;39630.47;5040204;28;20033;-76
2021/12/13 10:48:25;;;;;;;25.17;13.05;;;;;;;-146.64;100.00;39628.41;5033210;28;20025;-76
2021/12/13 10:50:59;;;;;;;25.23;12.73;;;;;;;-146.64;100.00;39644.78;5050160;28;20032;-76
2021/12/13 10:53:25;;;;;;;25.35;14.45;;;;;;;-146.64;100.00;39628.41;5063088;28;20032;-76
2021/12/13 10:55:58;;;;;;;28.30;13.90;;;;;;;-146.64;100.00;39607.94;5050828;28;20040;-76
2021/12/13 10:58:28;;;;;;;26.17;14.18;;;;;;;-146.64;100.00;39630.47;5064343;28;20282;-76
2021/12/13 11:01:08;;;;;;;31.95;15.18;;;;;;;-146.64;100.00;39603.84;5058971;28;20048;-76
2021/12/13 11:03:35;;;;;;;24.10;13.35;;;;;;;-146.64;100.00;39591.56;5064230;28;20040;-75
2021/12/13 11:06:01;;;;;;;29.45;13.63;;;;;;;-146.64;100.00;39636.59;5035162;28;20423;-75
2021/12/13 11:08:27;;;;;;;24.33;12.97;;;;;;;-146.64;100.00;39634.56;5049932;28;20037;-75
2021/12/13 11:11:00;;;;;;;27.50;13.50;;;;;;;-146.64;100.00;39607.94;5063254;28;20029;-76
2021/12/13 11:13:29;;;;;;;26.40;12.98;;;;;;;-146.64;100.00;39517.91;5039480;28;20029;-76
2021/12/13 11:15:58;;;;;;;29.65;14.93;;;;;;;-146.64;100.00;39628.41;5066098;28;20499;-76
2021/12/13 11:18:27;;;;;;;31.13;14.38;;;;;;;-146.64;100.00;39628.41;5047769;28;20086;-76
2021/12/13 11:21:05;;;;;;;33.40;13.73;;;;;;;-146.64;100.00;39624.31;5039986;28;20028;-75
2021/12/13 11:23:30;;;;;;;26.30;13.57;;;;;;;-146.64;100.00;39583.38;5062413;28;20091;-75
2021/12/13 11:25:59;;;;;;;23.50;13.45;;;;;;;-146.64;100.00;39554.72;5049136;28;20037;-75
2021/12/13 11:28:26;;;;;;;29.00;14.43;;;;;;;-146.64;100.00;39603.84;5049384;28;20318;-75
2021/12/13 11:30:52;;;;;;;27.77;13.15;;;;;;;-146.64;100.00;39571.09;5051992;28;20025;-75
2021/12/13 11:34:03;;;;;;;21.23;12.30;;;;;;;-146.64;100.00;39575.19;5059033;28;20038;-76
2021/12/13 11:36:46;;;;;;;26.85;14.18;;;;;;;-146.64;100.00;39552.69;5061333;28;20028;-75
2021/12/13 11:39:45;;;;;;;27.13;13.57;;;;;;;-146.64;100.00;39538.34;5057687;28;20076;-76